sensor_id;sensor_type;location;lat;lon;timestamp;temperature;humidity
50989;DHT22;37008;52.210;21.112;2022-11-11T00:01:05;6.40;99.90
50989;DHT22;37008;52.210;21.112;2022-11-11T00:03:31;6.40;99.90
50989;DHT22;37008;52.210;21.112;2022-11-11T00:06:02;6.50;99.90
50989;DHT22;37008;52.210;21.112;2022-11-11T00:08:31;6.50;99.90
50989;DHT22;37008;52.210;21.112;2022-11-11T00:11:05;6.60;99.90
50989;DHT22;37008;52.210;21.112;2022-11-11T00:13:32;6.60;99.90
50989;DHT22;37008;52.210;21.112;2022-11-11T00:16:27;6.70;99.90
50989;DHT22;37008;52.210;21.112;2022-11-11T00:19:12;6.70;99.90
50989;DHT22;37008;52.210;21.112;2022-11-11T00:21:57;6.80;99.90
50989;DHT22;37008;52.210;21.112;2022-11-11T00:24:41;6.80;99.90
50989;DHT22;37008;52.210;21.112;2022-11-11T00:27:25;6.80;99.90
50989;DHT22;37008;52.210;21.112;2022-11-11T00:29:50;6.70;99.90
50989;DHT22;37008;52.210;21.112;2022-11-11T00:32:16;6.70;99.90
50989;DHT22;37008;52.210;21.112;2022-11-11T00:34:47;6.70;99.90
50989;DHT22;37008;52.210;21.112;2022-11-11T00:37:33;6.70;99.90
50989;DHT22;37008;52.210;21.112;2022-11-11T00:39:58;6.60;99.90
50989;DHT22;37008;52.210;21.112;2022-11-11T00:42:24;6.50;99.90
50989;DHT22;37008;52.210;21.112;2022-11-11T00:44:50;6.50;99.90
50989;DHT22;37008;52.210;21.112;2022-11-11T00:47:16;6.50;99.90
50989;DHT22;37008;52.210;21.112;2022-11-11T00:50:00;6.40;99.90
50989;DHT22;37008;52.210;21.112;2022-11-11T00:52:45;6.40;99.90
50989;DHT22;37008;52.210;21.112;2022-11-11T00:55:12;6.30;99.90
50989;DHT22;37008;52.210;21.112;2022-11-11T00:57:37;6.30;99.90
50989;DHT22;37008;52.210;21.112;2022-11-11T01:00:04;6.30;99.90
50989;DHT22;37008;52.210;21.112;2022-11-11T01:02:30;6.30;99.90
50989;DHT22;37008;52.210;21.112;2022-11-11T01:04:55;6.30;99.90
50989;DHT22;37008;52.210;21.112;2022-11-11T01:07:21;6.30;99.90
50989;DHT22;37008;52.210;21.112;2022-11-11T01:09:47;6.30;99.90
50989;DHT22;37008;52.210;21.112;2022-11-11T01:12:13;6.40;99.90
50989;DHT22;37008;52.210;21.112;2022-11-11T01:14:38;6.40;99.90
50989;DHT22;37008;52.210;21.112;2022-11-11T01:17:04;6.50;99.90
50989;DHT22;37008;52.210;21.112;2022-11-11T01:19:31;6.50;99.90
50989;DHT22;37008;52.210;21.112;2022-11-11T01:21:56;6.60;99.90
50989;DHT22;37008;52.210;21.112;2022-11-11T01:24:23;6.70;99.90
50989;DHT22;37008;52.210;21.112;2022-11-11T01:26:49;6.80;99.90
50989;DHT22;37008;52.210;21.112;2022-11-11T01:29:16;6.80;99.90
50989;DHT22;37008;52.210;21.112;2022-11-11T01:31:41;6.90;99.90
50989;DHT22;37008;52.210;21.112;2022-11-11T01:34:07;6.90;99.90
50989;DHT22;37008;52.210;21.112;2022-11-11T01:36:36;7.00;99.90
50989;DHT22;37008;52.210;21.112;2022-11-11T01:39:01;7.00;99.90
50989;DHT22;37008;52.210;21.112;2022-11-11T01:41:31;7.10;99.90
50989;DHT22;37008;52.210;21.112;2022-11-11T01:44:02;7.10;99.90
50989;DHT22;37008;52.210;21.112;2022-11-11T01:46:36;7.20;99.90
50989;DHT22;37008;52.210;21.112;2022-11-11T01:54:50;7.40;99.90
50989;DHT22;37008;52.210;21.112;2022-11-11T02:00:11;7.50;99.90
50989;DHT22;37008;52.210;21.112;2022-11-11T02:02:50;7.60;99.90
50989;DHT22;37008;52.210;21.112;2022-11-11T02:05:19;7.60;99.90
50989;DHT22;37008;52.210;21.112;2022-11-11T02:08:08;7.70;99.90
50989;DHT22;37008;52.210;21.112;2022-11-11T02:10:34;7.70;99.90
50989;DHT22;37008;52.210;21.112;2022-11-11T02:13:02;7.70;99.90
50989;DHT22;37008;52.210;21.112;2022-11-11T02:15:46;7.80;99.90
50989;DHT22;37008;52.210;21.112;2022-11-11T02:18:12;7.80;99.90
50989;DHT22;37008;52.210;21.112;2022-11-11T02:20:41;7.80;99.90
50989;DHT22;37008;52.210;21.112;2022-11-11T02:23:24;7.80;99.90
50989;DHT22;37008;52.210;21.112;2022-11-11T02:25:52;7.80;99.90
50989;DHT22;37008;52.210;21.112;2022-11-11T02:28:20;7.80;99.90
50989;DHT22;37008;52.210;21.112;2022-11-11T02:30:46;7.90;99.90
50989;DHT22;37008;52.210;21.112;2022-11-11T02:33:12;7.90;99.90
50989;DHT22;37008;52.210;21.112;2022-11-11T02:35:42;7.90;99.90
50989;DHT22;37008;52.210;21.112;2022-11-11T02:38:09;7.80;99.90
50989;DHT22;37008;52.210;21.112;2022-11-11T02:40:41;7.70;99.90
50989;DHT22;37008;52.210;21.112;2022-11-11T02:43:26;7.70;99.90
50989;DHT22;37008;52.210;21.112;2022-11-11T02:45:51;7.60;99.90
50989;DHT22;37008;52.210;21.112;2022-11-11T02:48:17;7.50;99.90
50989;DHT22;37008;52.210;21.112;2022-11-11T02:50:43;7.40;99.90
50989;DHT22;37008;52.210;21.112;2022-11-11T02:53:08;7.30;99.90
50989;DHT22;37008;52.210;21.112;2022-11-11T02:55:34;7.30;99.90
50989;DHT22;37008;52.210;21.112;2022-11-11T02:58:00;7.20;99.90
50989;DHT22;37008;52.210;21.112;2022-11-11T03:00:26;7.10;99.90
50989;DHT22;37008;52.210;21.112;2022-11-11T03:02:51;7.00;99.90
50989;DHT22;37008;52.210;21.112;2022-11-11T03:05:17;6.90;99.90
50989;DHT22;37008;52.210;21.112;2022-11-11T03:07:42;6.80;99.90
50989;DHT22;37008;52.210;21.112;2022-11-11T03:10:08;6.80;99.90
50989;DHT22;37008;52.210;21.112;2022-11-11T03:12:35;6.60;99.90
50989;DHT22;37008;52.210;21.112;2022-11-11T03:15:01;6.50;99.90
50989;DHT22;37008;52.210;21.112;2022-11-11T03:17:26;6.30;99.90
50989;DHT22;37008;52.210;21.112;2022-11-11T03:23:09;6.00;99.90
50989;DHT22;37008;52.210;21.112;2022-11-11T03:25:46;5.90;99.90
50989;DHT22;37008;52.210;21.112;2022-11-11T03:28:19;5.80;99.90
50989;DHT22;37008;52.210;21.112;2022-11-11T03:30:47;5.70;99.90
50989;DHT22;37008;52.210;21.112;2022-11-11T03:33:14;5.60;99.90
50989;DHT22;37008;52.210;21.112;2022-11-11T03:35:40;5.50;99.90
50989;DHT22;37008;52.210;21.112;2022-11-11T03:38:09;5.40;99.90
50989;DHT22;37008;52.210;21.112;2022-11-11T03:40:49;5.40;99.90
50989;DHT22;37008;52.210;21.112;2022-11-11T03:43:17;5.30;99.90
50989;DHT22;37008;52.210;21.112;2022-11-11T03:45:43;5.30;99.90
50989;DHT22;37008;52.210;21.112;2022-11-11T03:48:09;5.30;99.90
50989;DHT22;37008;52.210;21.112;2022-11-11T03:50:35;5.20;99.90
50989;DHT22;37008;52.210;21.112;2022-11-11T03:53:01;5.20;99.90
50989;DHT22;37008;52.210;21.112;2022-11-11T03:55:27;5.20;99.90
50989;DHT22;37008;52.210;21.112;2022-11-11T03:57:53;5.20;99.90
50989;DHT22;37008;52.210;21.112;2022-11-11T04:00:24;5.10;99.90
50989;DHT22;37008;52.210;21.112;2022-11-11T04:02:50;5.10;99.90
50989;DHT22;37008;52.210;21.112;2022-11-11T04:05:35;5.10;99.90
50989;DHT22;37008;52.210;21.112;2022-11-11T04:08:20;5.10;99.90
50989;DHT22;37008;52.210;21.112;2022-11-11T04:11:21;5.10;99.90
50989;DHT22;37008;52.210;21.112;2022-11-11T04:13:48;5.10;99.90
50989;DHT22;37008;52.210;21.112;2022-11-11T04:16:43;5.20;99.90
50989;DHT22;37008;52.210;21.112;2022-11-11T04:19:09;5.30;99.90
50989;DHT22;37008;52.210;21.112;2022-11-11T04:21:53;5.40;99.90
50989;DHT22;37008;52.210;21.112;2022-11-11T04:24:20;5.50;99.90
50989;DHT22;37008;52.210;21.112;2022-11-11T04:27:07;5.70;99.90
50989;DHT22;37008;52.210;21.112;2022-11-11T04:29:33;5.70;99.90
50989;DHT22;37008;52.210;21.112;2022-11-11T04:34:47;6.00;99.90
50989;DHT22;37008;52.210;21.112;2022-11-11T04:37:14;6.10;99.90
50989;DHT22;37008;52.210;21.112;2022-11-11T04:39:40;6.10;99.90
50989;DHT22;37008;52.210;21.112;2022-11-11T04:42:24;6.20;99.90
50989;DHT22;37008;52.210;21.112;2022-11-11T04:44:50;6.30;99.90
50989;DHT22;37008;52.210;21.112;2022-11-11T04:47:35;6.30;99.90
50989;DHT22;37008;52.210;21.112;2022-11-11T04:50:00;6.40;99.90
50989;DHT22;37008;52.210;21.112;2022-11-11T04:52:26;6.40;99.90
50989;DHT22;37008;52.210;21.112;2022-11-11T04:54:56;6.40;99.90
50989;DHT22;37008;52.210;21.112;2022-11-11T04:57:41;6.40;99.90
50989;DHT22;37008;52.210;21.112;2022-11-11T05:00:08;6.40;99.90
50989;DHT22;37008;52.210;21.112;2022-11-11T05:02:34;6.40;99.90
50989;DHT22;37008;52.210;21.112;2022-11-11T05:05:18;6.50;99.90
50989;DHT22;37008;52.210;21.112;2022-11-11T05:07:44;6.50;99.90
50989;DHT22;37008;52.210;21.112;2022-11-11T05:10:28;6.60;99.90
50989;DHT22;37008;52.210;21.112;2022-11-11T05:12:54;6.70;99.90
50989;DHT22;37008;52.210;21.112;2022-11-11T05:15:41;6.70;99.90
50989;DHT22;37008;52.210;21.112;2022-11-11T05:18:25;6.80;99.90
50989;DHT22;37008;52.210;21.112;2022-11-11T05:21:17;6.80;99.90
50989;DHT22;37008;52.210;21.112;2022-11-11T05:23:46;6.80;99.90
50989;DHT22;37008;52.210;21.112;2022-11-11T05:26:30;6.80;99.90
50989;DHT22;37008;52.210;21.112;2022-11-11T05:28:56;6.90;99.90
50989;DHT22;37008;52.210;21.112;2022-11-11T05:31:22;6.90;99.90
50989;DHT22;37008;52.210;21.112;2022-11-11T05:33:47;6.90;99.90
50989;DHT22;37008;52.210;21.112;2022-11-11T05:36:13;6.90;99.90
50989;DHT22;37008;52.210;21.112;2022-11-11T05:38:38;7.00;99.90
50989;DHT22;37008;52.210;21.112;2022-11-11T05:41:04;7.10;99.90
50989;DHT22;37008;52.210;21.112;2022-11-11T05:43:30;7.10;99.90
50989;DHT22;37008;52.210;21.112;2022-11-11T05:45:55;7.10;99.90
50989;DHT22;37008;52.210;21.112;2022-11-11T05:48:21;7.20;99.90
50989;DHT22;37008;52.210;21.112;2022-11-11T05:50:47;7.30;99.90
50989;DHT22;37008;52.210;21.112;2022-11-11T05:53:12;7.30;99.90
50989;DHT22;37008;52.210;21.112;2022-11-11T05:55:38;7.30;99.90
50989;DHT22;37008;52.210;21.112;2022-11-11T05:58:03;7.40;99.90
50989;DHT22;37008;52.210;21.112;2022-11-11T06:00:29;7.40;99.90
50989;DHT22;37008;52.210;21.112;2022-11-11T06:03:04;7.40;99.90
50989;DHT22;37008;52.210;21.112;2022-11-11T06:05:30;7.50;99.90
50989;DHT22;37008;52.210;21.112;2022-11-11T06:07:56;7.50;99.90
50989;DHT22;37008;52.210;21.112;2022-11-11T06:10:22;7.50;99.90
50989;DHT22;37008;52.210;21.112;2022-11-11T06:12:59;7.50;99.90
50989;DHT22;37008;52.210;21.112;2022-11-11T06:15:35;7.60;99.90
50989;DHT22;37008;52.210;21.112;2022-11-11T06:18:02;7.60;99.90
50989;DHT22;37008;52.210;21.112;2022-11-11T06:20:28;7.60;99.90
50989;DHT22;37008;52.210;21.112;2022-11-11T06:22:53;7.70;99.90
50989;DHT22;37008;52.210;21.112;2022-11-11T06:25:23;7.70;99.90
50989;DHT22;37008;52.210;21.112;2022-11-11T06:28:08;7.70;99.90
50989;DHT22;37008;52.210;21.112;2022-11-11T06:30:33;7.80;99.90
50989;DHT22;37008;52.210;21.112;2022-11-11T06:32:59;7.80;99.90
50989;DHT22;37008;52.210;21.112;2022-11-11T06:35:25;7.80;99.90
50989;DHT22;37008;52.210;21.112;2022-11-11T06:37:50;7.90;99.90
50989;DHT22;37008;52.210;21.112;2022-11-11T06:40:16;7.90;99.90
50989;DHT22;37008;52.210;21.112;2022-11-11T06:42:41;7.90;99.90
50989;DHT22;37008;52.210;21.112;2022-11-11T06:45:08;8.00;99.90
50989;DHT22;37008;52.210;21.112;2022-11-11T06:47:33;8.00;99.90
50989;DHT22;37008;52.210;21.112;2022-11-11T06:49:59;8.10;99.90
50989;DHT22;37008;52.210;21.112;2022-11-11T06:52:24;8.10;99.90
50989;DHT22;37008;52.210;21.112;2022-11-11T06:54:50;8.10;99.90
50989;DHT22;37008;52.210;21.112;2022-11-11T06:57:16;8.10;99.90
50989;DHT22;37008;52.210;21.112;2022-11-11T06:59:41;8.20;99.90
50989;DHT22;37008;52.210;21.112;2022-11-11T07:02:13;8.20;99.90
50989;DHT22;37008;52.210;21.112;2022-11-11T07:04:39;8.20;99.90
50989;DHT22;37008;52.210;21.112;2022-11-11T07:07:05;8.20;99.90
50989;DHT22;37008;52.210;21.112;2022-11-11T07:09:30;8.20;99.90
50989;DHT22;37008;52.210;21.112;2022-11-11T07:11:56;8.20;99.90
50989;DHT22;37008;52.210;21.112;2022-11-11T07:14:21;8.30;99.90
50989;DHT22;37008;52.210;21.112;2022-11-11T07:16:47;8.30;99.90
50989;DHT22;37008;52.210;21.112;2022-11-11T07:19:13;8.30;99.90
50989;DHT22;37008;52.210;21.112;2022-11-11T07:21:38;8.40;99.90
50989;DHT22;37008;52.210;21.112;2022-11-11T07:24:07;8.30;99.90
50989;DHT22;37008;52.210;21.112;2022-11-11T07:26:32;8.40;99.90
50989;DHT22;37008;52.210;21.112;2022-11-11T07:28:58;8.40;99.90
50989;DHT22;37008;52.210;21.112;2022-11-11T07:31:24;8.40;99.90
50989;DHT22;37008;52.210;21.112;2022-11-11T07:33:49;8.50;99.90
50989;DHT22;37008;52.210;21.112;2022-11-11T07:36:15;8.50;99.90
50989;DHT22;37008;52.210;21.112;2022-11-11T07:38:40;8.50;99.90
50989;DHT22;37008;52.210;21.112;2022-11-11T07:41:09;8.50;99.90
50989;DHT22;37008;52.210;21.112;2022-11-11T07:43:35;8.50;99.90
50989;DHT22;37008;52.210;21.112;2022-11-11T07:46:00;8.60;99.90
50989;DHT22;37008;52.210;21.112;2022-11-11T07:48:26;8.60;99.90
50989;DHT22;37008;52.210;21.112;2022-11-11T07:50:51;8.60;99.90
50989;DHT22;37008;52.210;21.112;2022-11-11T07:53:19;8.60;99.90
50989;DHT22;37008;52.210;21.112;2022-11-11T07:55:45;8.70;99.90
50989;DHT22;37008;52.210;21.112;2022-11-11T07:58:11;8.70;99.90
50989;DHT22;37008;52.210;21.112;2022-11-11T08:00:37;8.80;99.90
50989;DHT22;37008;52.210;21.112;2022-11-11T08:03:03;8.80;99.90
50989;DHT22;37008;52.210;21.112;2022-11-11T08:05:28;8.90;99.90
50989;DHT22;37008;52.210;21.112;2022-11-11T08:07:54;8.90;99.90
50989;DHT22;37008;52.210;21.112;2022-11-11T08:10:19;8.90;99.90
50989;DHT22;37008;52.210;21.112;2022-11-11T08:12:45;9.00;99.90
50989;DHT22;37008;52.210;21.112;2022-11-11T08:15:29;9.00;99.90
50989;DHT22;37008;52.210;21.112;2022-11-11T08:17:55;9.10;99.90
50989;DHT22;37008;52.210;21.112;2022-11-11T08:20:20;9.10;99.90
50989;DHT22;37008;52.210;21.112;2022-11-11T08:22:49;9.20;99.90
50989;DHT22;37008;52.210;21.112;2022-11-11T08:25:19;9.20;99.90
50989;DHT22;37008;52.210;21.112;2022-11-11T08:27:58;9.20;99.90
50989;DHT22;37008;52.210;21.112;2022-11-11T08:30:27;9.30;99.90
50989;DHT22;37008;52.210;21.112;2022-11-11T08:33:08;9.40;99.90
50989;DHT22;37008;52.210;21.112;2022-11-11T08:35:34;9.50;99.90
50989;DHT22;37008;52.210;21.112;2022-11-11T08:38:02;9.60;99.90
50989;DHT22;37008;52.210;21.112;2022-11-11T08:40:31;9.80;99.90
50989;DHT22;37008;52.210;21.112;2022-11-11T08:42:58;9.80;99.90
50989;DHT22;37008;52.210;21.112;2022-11-11T08:45:24;9.90;99.90
50989;DHT22;37008;52.210;21.112;2022-11-11T08:47:50;9.90;99.90
50989;DHT22;37008;52.210;21.112;2022-11-11T08:50:17;10.00;99.90
50989;DHT22;37008;52.210;21.112;2022-11-11T08:52:50;10.00;99.90
50989;DHT22;37008;52.210;21.112;2022-11-11T08:55:16;10.00;99.90
50989;DHT22;37008;52.210;21.112;2022-11-11T08:57:42;10.00;99.90
50989;DHT22;37008;52.210;21.112;2022-11-11T09:00:08;10.10;99.90
50989;DHT22;37008;52.210;21.112;2022-11-11T09:02:34;10.10;99.90
50989;DHT22;37008;52.210;21.112;2022-11-11T09:05:01;10.20;99.90
50989;DHT22;37008;52.210;21.112;2022-11-11T09:07:27;10.20;99.90
50989;DHT22;37008;52.210;21.112;2022-11-11T09:09:53;10.20;99.90
50989;DHT22;37008;52.210;21.112;2022-11-11T09:12:21;10.30;99.90
50989;DHT22;37008;52.210;21.112;2022-11-11T09:14:47;10.30;99.90
50989;DHT22;37008;52.210;21.112;2022-11-11T09:17:16;10.30;99.90
50989;DHT22;37008;52.210;21.112;2022-11-11T09:19:42;10.30;99.90
50989;DHT22;37008;52.210;21.112;2022-11-11T09:22:08;10.50;99.90
50989;DHT22;37008;52.210;21.112;2022-11-11T09:24:33;10.50;99.90
50989;DHT22;37008;52.210;21.112;2022-11-11T09:26:59;10.50;99.90
50989;DHT22;37008;52.210;21.112;2022-11-11T09:29:24;10.60;99.90
50989;DHT22;37008;52.210;21.112;2022-11-11T09:31:50;10.50;99.90
50989;DHT22;37008;52.210;21.112;2022-11-11T09:34:15;10.60;99.90
50989;DHT22;37008;52.210;21.112;2022-11-11T09:36:41;10.60;99.90
50989;DHT22;37008;52.210;21.112;2022-11-11T09:39:07;10.70;99.90
50989;DHT22;37008;52.210;21.112;2022-11-11T09:52:37;10.80;99.90
50989;DHT22;37008;52.210;21.112;2022-11-11T09:55:29;10.80;99.90
50989;DHT22;37008;52.210;21.112;2022-11-11T09:58:00;10.80;99.90
50989;DHT22;37008;52.210;21.112;2022-11-11T10:00:35;10.90;99.90
50989;DHT22;37008;52.210;21.112;2022-11-11T10:05:47;11.00;99.90
50989;DHT22;37008;52.210;21.112;2022-11-11T10:10:52;10.90;99.90
50989;DHT22;37008;52.210;21.112;2022-11-11T10:13:32;10.90;99.90
50989;DHT22;37008;52.210;21.112;2022-11-11T10:21:43;10.90;99.90
50989;DHT22;37008;52.210;21.112;2022-11-11T10:24:21;10.90;99.90
50989;DHT22;37008;52.210;21.112;2022-11-11T10:26:51;10.90;99.90
50989;DHT22;37008;52.210;21.112;2022-11-11T10:29:19;10.90;99.90
50989;DHT22;37008;52.210;21.112;2022-11-11T10:31:55;11.00;99.90
50989;DHT22;37008;52.210;21.112;2022-11-11T10:34:31;11.00;99.90
50989;DHT22;37008;52.210;21.112;2022-11-11T10:36:57;11.00;99.90
50989;DHT22;37008;52.210;21.112;2022-11-11T10:39:31;11.00;99.90
50989;DHT22;37008;52.210;21.112;2022-11-11T10:41:59;11.00;99.90
50989;DHT22;37008;52.210;21.112;2022-11-11T10:44:27;11.10;99.90
50989;DHT22;37008;52.210;21.112;2022-11-11T10:50:17;11.20;99.90
50989;DHT22;37008;52.210;21.112;2022-11-11T11:00:51;11.30;99.90
50989;DHT22;37008;52.210;21.112;2022-11-11T11:03:24;11.30;99.90
50989;DHT22;37008;52.210;21.112;2022-11-11T11:08:41;11.40;99.90
50989;DHT22;37008;52.210;21.112;2022-11-11T11:11:51;11.40;99.90
50989;DHT22;37008;52.210;21.112;2022-11-11T11:14:20;11.40;99.90
50989;DHT22;37008;52.210;21.112;2022-11-11T11:16:52;11.40;99.90
50989;DHT22;37008;52.210;21.112;2022-11-11T11:19:24;11.40;99.90
50989;DHT22;37008;52.210;21.112;2022-11-11T11:26:50;11.40;99.90
50989;DHT22;37008;52.210;21.112;2022-11-11T11:34:53;11.40;99.90
50989;DHT22;37008;52.210;21.112;2022-11-11T11:37:21;11.40;99.90
50989;DHT22;37008;52.210;21.112;2022-11-11T11:39:48;11.40;99.90
50989;DHT22;37008;52.210;21.112;2022-11-11T11:44:52;11.40;99.90
50989;DHT22;37008;52.210;21.112;2022-11-11T11:47:41;11.40;99.90
50989;DHT22;37008;52.210;21.112;2022-11-11T11:53:19;11.40;99.90
50989;DHT22;37008;52.210;21.112;2022-11-11T11:55:53;11.40;99.90
50989;DHT22;37008;52.210;21.112;2022-11-11T12:01:10;11.40;99.90
50989;DHT22;37008;52.210;21.112;2022-11-11T12:07:02;11.40;99.90
50989;DHT22;37008;52.210;21.112;2022-11-11T12:10:23;11.40;99.90
50989;DHT22;37008;52.210;21.112;2022-11-11T12:13:01;11.40;99.90
50989;DHT22;37008;52.210;21.112;2022-11-11T12:15:38;11.40;99.90
50989;DHT22;37008;52.210;21.112;2022-11-11T12:21:14;11.50;99.90
50989;DHT22;37008;52.210;21.112;2022-11-11T12:32:27;11.40;99.90
50989;DHT22;37008;52.210;21.112;2022-11-11T12:35:32;11.40;99.90
50989;DHT22;37008;52.210;21.112;2022-11-11T12:40:55;11.40;99.90
50989;DHT22;37008;52.210;21.112;2022-11-11T12:49:29;11.40;99.90
50989;DHT22;37008;52.210;21.112;2022-11-11T12:52:29;11.40;99.90
50989;DHT22;37008;52.210;21.112;2022-11-11T12:55:13;11.40;99.90
50989;DHT22;37008;52.210;21.112;2022-11-11T13:00:39;11.30;99.90
50989;DHT22;37008;52.210;21.112;2022-11-11T13:03:33;11.30;99.90
50989;DHT22;37008;52.210;21.112;2022-11-11T13:14:23;11.20;99.90
50989;DHT22;37008;52.210;21.112;2022-11-11T13:16:57;11.20;99.90
50989;DHT22;37008;52.210;21.112;2022-11-11T13:19:42;11.10;99.90
50989;DHT22;37008;52.210;21.112;2022-11-11T13:22:28;11.10;99.90
50989;DHT22;37008;52.210;21.112;2022-11-11T13:24:55;11.10;99.90
50989;DHT22;37008;52.210;21.112;2022-11-11T13:27:38;11.10;99.90
50989;DHT22;37008;52.210;21.112;2022-11-11T13:33:12;11.10;99.90
50989;DHT22;37008;52.210;21.112;2022-11-11T13:35:53;11.10;99.90
50989;DHT22;37008;52.210;21.112;2022-11-11T13:38:45;11.10;99.90
50989;DHT22;37008;52.210;21.112;2022-11-11T13:41:12;11.10;99.90
50989;DHT22;37008;52.210;21.112;2022-11-11T13:43:46;11.10;99.90
50989;DHT22;37008;52.210;21.112;2022-11-11T13:46:33;11.10;99.90
50989;DHT22;37008;52.210;21.112;2022-11-11T13:49:02;11.10;99.90
50989;DHT22;37008;52.210;21.112;2022-11-11T13:51:39;11.00;99.90
50989;DHT22;37008;52.210;21.112;2022-11-11T13:54:33;11.00;99.90
50989;DHT22;37008;52.210;21.112;2022-11-11T13:57:23;11.00;99.90
50989;DHT22;37008;52.210;21.112;2022-11-11T14:00:05;11.00;99.90
50989;DHT22;37008;52.210;21.112;2022-11-11T14:02:35;10.90;99.90
50989;DHT22;37008;52.210;21.112;2022-11-11T14:18:08;10.80;99.90
50989;DHT22;37008;52.210;21.112;2022-11-11T14:20:39;10.80;99.90
50989;DHT22;37008;52.210;21.112;2022-11-11T14:24:02;10.80;99.90
50989;DHT22;37008;52.210;21.112;2022-11-11T14:36:58;10.60;99.90
50989;DHT22;37008;52.210;21.112;2022-11-11T14:39:41;10.60;99.90
50989;DHT22;37008;52.210;21.112;2022-11-11T14:42:45;10.60;99.90
50989;DHT22;37008;52.210;21.112;2022-11-11T14:47:54;10.50;99.90
50989;DHT22;37008;52.210;21.112;2022-11-11T14:52:58;10.40;99.90
50989;DHT22;37008;52.210;21.112;2022-11-11T14:55:32;10.40;99.90
50989;DHT22;37008;52.210;21.112;2022-11-11T15:03:38;10.40;99.90
50989;DHT22;37008;52.210;21.112;2022-11-11T15:06:15;10.30;99.90
50989;DHT22;37008;52.210;21.112;2022-11-11T15:14:47;10.30;99.90
50989;DHT22;37008;52.210;21.112;2022-11-11T15:26:21;10.20;99.90
50989;DHT22;37008;52.210;21.112;2022-11-11T15:36:53;10.00;99.90
50989;DHT22;37008;52.210;21.112;2022-11-11T15:39:23;9.90;99.90
50989;DHT22;37008;52.210;21.112;2022-11-11T15:41:51;9.80;99.90
50989;DHT22;37008;52.210;21.112;2022-11-11T15:44:26;9.80;99.90
50989;DHT22;37008;52.210;21.112;2022-11-11T15:46:53;9.70;99.90
50989;DHT22;37008;52.210;21.112;2022-11-11T15:49:39;9.70;99.90
50989;DHT22;37008;52.210;21.112;2022-11-11T15:52:30;9.60;99.90
50989;DHT22;37008;52.210;21.112;2022-11-11T15:54:56;9.60;99.90
50989;DHT22;37008;52.210;21.112;2022-11-11T15:59:52;9.60;99.90
50989;DHT22;37008;52.210;21.112;2022-11-11T16:02:24;9.50;99.90
50989;DHT22;37008;52.210;21.112;2022-11-11T16:05:23;9.50;99.90
50989;DHT22;37008;52.210;21.112;2022-11-11T16:07:51;9.50;99.90
50989;DHT22;37008;52.210;21.112;2022-11-11T16:10:31;9.50;99.90
50989;DHT22;37008;52.210;21.112;2022-11-11T16:13:02;9.50;99.90
50989;DHT22;37008;52.210;21.112;2022-11-11T16:15:44;9.60;99.90
50989;DHT22;37008;52.210;21.112;2022-11-11T16:18:39;9.60;99.90
50989;DHT22;37008;52.210;21.112;2022-11-11T16:23:37;9.80;99.90
50989;DHT22;37008;52.210;21.112;2022-11-11T16:26:04;9.90;99.90
50989;DHT22;37008;52.210;21.112;2022-11-11T16:28:51;9.80;99.90
50989;DHT22;37008;52.210;21.112;2022-11-11T16:31:39;9.90;99.90
50989;DHT22;37008;52.210;21.112;2022-11-11T16:37:09;9.90;99.90
50989;DHT22;37008;52.210;21.112;2022-11-11T16:39:36;9.90;99.90
50989;DHT22;37008;52.210;21.112;2022-11-11T16:42:04;10.00;99.90
50989;DHT22;37008;52.210;21.112;2022-11-11T16:44:47;10.00;99.90
50989;DHT22;37008;52.210;21.112;2022-11-11T16:52:58;10.00;99.90
50989;DHT22;37008;52.210;21.112;2022-11-11T16:55:38;10.00;99.90
50989;DHT22;37008;52.210;21.112;2022-11-11T16:58:19;10.00;99.90
50989;DHT22;37008;52.210;21.112;2022-11-11T17:00:45;10.00;99.90
50989;DHT22;37008;52.210;21.112;2022-11-11T17:03:13;10.00;99.90
50989;DHT22;37008;52.210;21.112;2022-11-11T17:05:50;9.90;99.90
50989;DHT22;37008;52.210;21.112;2022-11-11T17:08:41;10.00;99.90
50989;DHT22;37008;52.210;21.112;2022-11-11T17:11:11;10.00;99.90
50989;DHT22;37008;52.210;21.112;2022-11-11T17:13:53;9.90;99.90
50989;DHT22;37008;52.210;21.112;2022-11-11T17:16:19;10.00;99.90
50989;DHT22;37008;52.210;21.112;2022-11-11T17:18:45;10.00;99.90
50989;DHT22;37008;52.210;21.112;2022-11-11T17:21:11;10.10;99.90
50989;DHT22;37008;52.210;21.112;2022-11-11T17:23:37;10.00;99.90
50989;DHT22;37008;52.210;21.112;2022-11-11T17:26:03;10.00;99.90
50989;DHT22;37008;52.210;21.112;2022-11-11T17:28:33;10.00;99.90
50989;DHT22;37008;52.210;21.112;2022-11-11T17:31:07;10.00;99.90
50989;DHT22;37008;52.210;21.112;2022-11-11T17:33:33;10.00;99.90
50989;DHT22;37008;52.210;21.112;2022-11-11T17:35:59;10.00;99.90
50989;DHT22;37008;52.210;21.112;2022-11-11T17:38:27;10.10;99.90
50989;DHT22;37008;52.210;21.112;2022-11-11T17:40:53;10.00;99.90
50989;DHT22;37008;52.210;21.112;2022-11-11T17:43:19;10.10;99.90
50989;DHT22;37008;52.210;21.112;2022-11-11T17:45:44;10.10;99.90
50989;DHT22;37008;52.210;21.112;2022-11-11T17:48:10;10.00;99.90
50989;DHT22;37008;52.210;21.112;2022-11-11T17:50:37;10.00;99.90
50989;DHT22;37008;52.210;21.112;2022-11-11T17:53:05;10.00;99.90
50989;DHT22;37008;52.210;21.112;2022-11-11T17:55:34;10.00;99.90
50989;DHT22;37008;52.210;21.112;2022-11-11T17:58:00;10.00;99.90
50989;DHT22;37008;52.210;21.112;2022-11-11T18:00:26;10.00;99.90
50989;DHT22;37008;52.210;21.112;2022-11-11T18:02:52;10.00;99.90
50989;DHT22;37008;52.210;21.112;2022-11-11T18:05:18;10.00;99.90
50989;DHT22;37008;52.210;21.112;2022-11-11T18:07:44;10.00;99.90
50989;DHT22;37008;52.210;21.112;2022-11-11T18:10:10;10.00;99.90
50989;DHT22;37008;52.210;21.112;2022-11-11T18:12:36;10.00;99.90
50989;DHT22;37008;52.210;21.112;2022-11-11T18:15:02;10.00;99.90
50989;DHT22;37008;52.210;21.112;2022-11-11T18:17:28;10.00;99.90
50989;DHT22;37008;52.210;21.112;2022-11-11T18:19:54;10.00;99.90
50989;DHT22;37008;52.210;21.112;2022-11-11T18:22:19;10.00;99.90
50989;DHT22;37008;52.210;21.112;2022-11-11T18:24:45;10.00;99.90
50989;DHT22;37008;52.210;21.112;2022-11-11T18:27:10;9.90;99.90
50989;DHT22;37008;52.210;21.112;2022-11-11T18:29:36;9.90;99.90
50989;DHT22;37008;52.210;21.112;2022-11-11T18:32:02;9.90;99.90
50989;DHT22;37008;52.210;21.112;2022-11-11T18:34:28;9.90;99.90
50989;DHT22;37008;52.210;21.112;2022-11-11T18:36:56;9.90;99.90
50989;DHT22;37008;52.210;21.112;2022-11-11T18:39:22;9.90;99.90
50989;DHT22;37008;52.210;21.112;2022-11-11T18:41:47;9.90;99.90
50989;DHT22;37008;52.210;21.112;2022-11-11T18:44:13;9.90;99.90
50989;DHT22;37008;52.210;21.112;2022-11-11T18:46:38;9.90;99.90
50989;DHT22;37008;52.210;21.112;2022-11-11T18:49:05;9.80;99.90